sensor_id;sensor_type;location;lat;lon;timestamp;temperature;humidity
16700;DHT22;8466;52.286;21.124;2023-05-10T00:00:46;5.10;99.90
16700;DHT22;8466;52.286;21.124;2023-05-10T00:03:14;5.10;99.90
16700;DHT22;8466;52.286;21.124;2023-05-10T00:05:43;5.10;99.90
16700;DHT22;8466;52.286;21.124;2023-05-10T00:08:11;5.00;99.90
16700;DHT22;8466;52.286;21.124;2023-05-10T00:10:40;5.00;99.90
16700;DHT22;8466;52.286;21.124;2023-05-10T00:13:09;5.00;99.90
16700;DHT22;8466;52.286;21.124;2023-05-10T00:15:38;5.00;99.90
16700;DHT22;8466;52.286;21.124;2023-05-10T00:18:08;5.00;99.90
16700;DHT22;8466;52.286;21.124;2023-05-10T00:20:37;5.00;99.90
16700;DHT22;8466;52.286;21.124;2023-05-10T00:23:05;5.00;99.90
16700;DHT22;8466;52.286;21.124;2023-05-10T00:25:34;5.00;99.90
16700;DHT22;8466;52.286;21.124;2023-05-10T00:28:03;5.00;99.90
16700;DHT22;8466;52.286;21.124;2023-05-10T00:30:31;5.10;99.90
16700;DHT22;8466;52.286;21.124;2023-05-10T00:33:00;5.10;99.90
16700;DHT22;8466;52.286;21.124;2023-05-10T00:35:30;5.00;99.90
16700;DHT22;8466;52.286;21.124;2023-05-10T00:37:59;5.00;99.90
16700;DHT22;8466;52.286;21.124;2023-05-10T00:40:27;5.00;99.90
16700;DHT22;8466;52.286;21.124;2023-05-10T00:42:57;5.00;99.90
16700;DHT22;8466;52.286;21.124;2023-05-10T00:45:26;5.10;99.90
16700;DHT22;8466;52.286;21.124;2023-05-10T00:47:55;5.10;99.90
16700;DHT22;8466;52.286;21.124;2023-05-10T00:50:24;5.00;99.90
16700;DHT22;8466;52.286;21.124;2023-05-10T00:52:54;5.00;99.90
16700;DHT22;8466;52.286;21.124;2023-05-10T00:55:23;5.00;99.90
16700;DHT22;8466;52.286;21.124;2023-05-10T00:57:53;5.00;99.90
16700;DHT22;8466;52.286;21.124;2023-05-10T01:00:21;5.00;99.90
16700;DHT22;8466;52.286;21.124;2023-05-10T01:02:50;5.10;99.90
16700;DHT22;8466;52.286;21.124;2023-05-10T01:05:19;5.10;99.90
16700;DHT22;8466;52.286;21.124;2023-05-10T01:07:48;5.10;99.90
16700;DHT22;8466;52.286;21.124;2023-05-10T01:10:18;5.20;99.90
16700;DHT22;8466;52.286;21.124;2023-05-10T01:12:47;5.20;99.90
16700;DHT22;8466;52.286;21.124;2023-05-10T01:15:16;5.30;99.90
16700;DHT22;8466;52.286;21.124;2023-05-10T01:17:47;5.30;99.90
16700;DHT22;8466;52.286;21.124;2023-05-10T01:20:17;5.40;99.90
16700;DHT22;8466;52.286;21.124;2023-05-10T01:23:18;5.50;99.90
16700;DHT22;8466;52.286;21.124;2023-05-10T01:29:19;5.60;99.90
16700;DHT22;8466;52.286;21.124;2023-05-10T01:32:14;5.70;99.90
16700;DHT22;8466;52.286;21.124;2023-05-10T01:34:51;5.70;99.90
16700;DHT22;8466;52.286;21.124;2023-05-10T01:37:31;5.60;99.90
16700;DHT22;8466;52.286;21.124;2023-05-10T01:40:09;5.80;99.90
16700;DHT22;8466;52.286;21.124;2023-05-10T01:42:47;5.70;99.90
16700;DHT22;8466;52.286;21.124;2023-05-10T01:45:23;5.70;99.90
16700;DHT22;8466;52.286;21.124;2023-05-10T01:48:03;5.70;99.90
16700;DHT22;8466;52.286;21.124;2023-05-10T01:50:33;5.70;99.90
16700;DHT22;8466;52.286;21.124;2023-05-10T01:53:05;5.70;99.90
16700;DHT22;8466;52.286;21.124;2023-05-10T01:55:39;5.70;99.90
16700;DHT22;8466;52.286;21.124;2023-05-10T01:58:10;5.70;99.90
16700;DHT22;8466;52.286;21.124;2023-05-10T02:00:42;5.70;99.90
16700;DHT22;8466;52.286;21.124;2023-05-10T02:03:14;5.60;99.90
16700;DHT22;8466;52.286;21.124;2023-05-10T02:05:46;5.60;99.90
16700;DHT22;8466;52.286;21.124;2023-05-10T02:08:17;5.60;99.90
16700;DHT22;8466;52.286;21.124;2023-05-10T02:10:46;5.50;99.90
16700;DHT22;8466;52.286;21.124;2023-05-10T02:13:17;5.40;99.90
16700;DHT22;8466;52.286;21.124;2023-05-10T02:15:48;5.30;99.90
16700;DHT22;8466;52.286;21.124;2023-05-10T02:18:18;5.30;99.90
16700;DHT22;8466;52.286;21.124;2023-05-10T02:20:48;5.20;99.90
16700;DHT22;8466;52.286;21.124;2023-05-10T02:23:17;5.20;99.90
16700;DHT22;8466;52.286;21.124;2023-05-10T02:25:47;5.10;99.90
16700;DHT22;8466;52.286;21.124;2023-05-10T02:28:17;5.10;99.90
16700;DHT22;8466;52.286;21.124;2023-05-10T02:30:47;5.00;99.90
16700;DHT22;8466;52.286;21.124;2023-05-10T02:33:17;5.00;99.90
16700;DHT22;8466;52.286;21.124;2023-05-10T02:35:47;4.90;99.90
16700;DHT22;8466;52.286;21.124;2023-05-10T02:38:16;4.90;99.90
16700;DHT22;8466;52.286;21.124;2023-05-10T02:40:46;4.80;99.90
16700;DHT22;8466;52.286;21.124;2023-05-10T02:43:17;4.70;99.90
16700;DHT22;8466;52.286;21.124;2023-05-10T02:45:47;4.70;99.90
16700;DHT22;8466;52.286;21.124;2023-05-10T02:48:18;4.70;99.90
16700;DHT22;8466;52.286;21.124;2023-05-10T02:50:47;4.70;99.90
16700;DHT22;8466;52.286;21.124;2023-05-10T02:53:22;4.60;99.90
16700;DHT22;8466;52.286;21.124;2023-05-10T02:55:52;4.60;99.90
16700;DHT22;8466;52.286;21.124;2023-05-10T02:58:21;4.50;99.90
16700;DHT22;8466;52.286;21.124;2023-05-10T03:00:50;4.50;99.90
16700;DHT22;8466;52.286;21.124;2023-05-10T03:03:21;4.50;99.90
16700;DHT22;8466;52.286;21.124;2023-05-10T03:05:50;4.50;99.90
16700;DHT22;8466;52.286;21.124;2023-05-10T03:08:20;4.50;99.90
16700;DHT22;8466;52.286;21.124;2023-05-10T03:10:55;4.50;99.90
16700;DHT22;8466;52.286;21.124;2023-05-10T03:13:31;4.60;99.90
16700;DHT22;8466;52.286;21.124;2023-05-10T03:16:07;4.60;99.90
16700;DHT22;8466;52.286;21.124;2023-05-10T03:18:42;4.60;99.90
16700;DHT22;8466;52.286;21.124;2023-05-10T03:21:13;4.70;99.90
16700;DHT22;8466;52.286;21.124;2023-05-10T03:23:50;4.60;99.90
16700;DHT22;8466;52.286;21.124;2023-05-10T03:26:23;4.70;99.90
16700;DHT22;8466;52.286;21.124;2023-05-10T03:28:52;4.80;99.90
16700;DHT22;8466;52.286;21.124;2023-05-10T03:31:22;4.80;99.90
16700;DHT22;8466;52.286;21.124;2023-05-10T03:33:52;4.80;99.90
16700;DHT22;8466;52.286;21.124;2023-05-10T03:36:21;4.90;99.90
16700;DHT22;8466;52.286;21.124;2023-05-10T03:38:49;5.00;99.90
16700;DHT22;8466;52.286;21.124;2023-05-10T03:41:18;5.00;99.90
16700;DHT22;8466;52.286;21.124;2023-05-10T03:43:47;5.10;99.90
16700;DHT22;8466;52.286;21.124;2023-05-10T03:46:16;5.20;99.90
16700;DHT22;8466;52.286;21.124;2023-05-10T03:48:44;5.30;99.90
16700;DHT22;8466;52.286;21.124;2023-05-10T03:51:14;5.50;99.90
16700;DHT22;8466;52.286;21.124;2023-05-10T03:53:43;5.70;99.90
16700;DHT22;8466;52.286;21.124;2023-05-10T03:56:11;5.90;99.90
16700;DHT22;8466;52.286;21.124;2023-05-10T03:58:40;6.20;99.90
16700;DHT22;8466;52.286;21.124;2023-05-10T04:01:09;6.60;99.90
16700;DHT22;8466;52.286;21.124;2023-05-10T04:03:38;7.60;99.90
16700;DHT22;8466;52.286;21.124;2023-05-10T04:06:07;9.30;99.90
16700;DHT22;8466;52.286;21.124;2023-05-10T04:08:40;11.30;98.50
16700;DHT22;8466;52.286;21.124;2023-05-10T04:11:10;13.20;93.90
16700;DHT22;8466;52.286;21.124;2023-05-10T04:13:39;14.60;89.00
16700;DHT22;8466;52.286;21.124;2023-05-10T04:16:08;15.80;82.10
16700;DHT22;8466;52.286;21.124;2023-05-10T04:18:37;16.60;75.60
16700;DHT22;8466;52.286;21.124;2023-05-10T04:21:11;17.30;71.30
16700;DHT22;8466;52.286;21.124;2023-05-10T04:23:42;17.70;67.10
16700;DHT22;8466;52.286;21.124;2023-05-10T04:26:10;18.00;65.50
16700;DHT22;8466;52.286;21.124;2023-05-10T04:28:39;18.20;63.90
16700;DHT22;8466;52.286;21.124;2023-05-10T04:31:09;18.00;63.40
16700;DHT22;8466;52.286;21.124;2023-05-10T04:33:38;17.50;63.70
16700;DHT22;8466;52.286;21.124;2023-05-10T04:36:06;16.60;65.10
16700;DHT22;8466;52.286;21.124;2023-05-10T04:38:35;15.50;66.80
16700;DHT22;8466;52.286;21.124;2023-05-10T04:41:06;14.10;69.70
16700;DHT22;8466;52.286;21.124;2023-05-10T04:43:35;12.90;74.10
16700;DHT22;8466;52.286;21.124;2023-05-10T04:46:04;11.90;77.80
16700;DHT22;8466;52.286;21.124;2023-05-10T04:48:33;11.20;81.50
16700;DHT22;8466;52.286;21.124;2023-05-10T04:51:02;10.80;83.30
16700;DHT22;8466;52.286;21.124;2023-05-10T04:53:31;10.50;84.70
16700;DHT22;8466;52.286;21.124;2023-05-10T04:56:00;10.20;86.00
16700;DHT22;8466;52.286;21.124;2023-05-10T04:58:30;10.00;87.40
16700;DHT22;8466;52.286;21.124;2023-05-10T05:01:05;9.90;88.90
16700;DHT22;8466;52.286;21.124;2023-05-10T05:03:34;9.90;89.10
16700;DHT22;8466;52.286;21.124;2023-05-10T05:06:03;9.90;89.20
16700;DHT22;8466;52.286;21.124;2023-05-10T05:08:32;9.90;90.20
16700;DHT22;8466;52.286;21.124;2023-05-10T05:11:01;9.80;90.60
16700;DHT22;8466;52.286;21.124;2023-05-10T05:13:31;9.80;90.40
16700;DHT22;8466;52.286;21.124;2023-05-10T05:16:00;9.80;90.60
16700;DHT22;8466;52.286;21.124;2023-05-10T05:18:30;9.80;90.90
16700;DHT22;8466;52.286;21.124;2023-05-10T05:20:58;9.80;91.30
16700;DHT22;8466;52.286;21.124;2023-05-10T05:23:27;9.80;90.90
16700;DHT22;8466;52.286;21.124;2023-05-10T05:26:00;9.80;91.30
16700;DHT22;8466;52.286;21.124;2023-05-10T05:28:34;9.90;91.30
16700;DHT22;8466;52.286;21.124;2023-05-10T05:31:04;10.00;91.20
16700;DHT22;8466;52.286;21.124;2023-05-10T05:33:33;10.00;91.50
16700;DHT22;8466;52.286;21.124;2023-05-10T05:36:02;10.10;91.60
16700;DHT22;8466;52.286;21.124;2023-05-10T05:38:31;10.20;91.60
16700;DHT22;8466;52.286;21.124;2023-05-10T05:41:00;10.30;91.50
16700;DHT22;8466;52.286;21.124;2023-05-10T05:43:29;10.40;91.40
16700;DHT22;8466;52.286;21.124;2023-05-10T05:45:59;10.50;91.50
16700;DHT22;8466;52.286;21.124;2023-05-10T05:48:29;10.60;91.10
16700;DHT22;8466;52.286;21.124;2023-05-10T05:50:58;10.70;91.30
16700;DHT22;8466;52.286;21.124;2023-05-10T05:53:27;10.80;90.70
16700;DHT22;8466;52.286;21.124;2023-05-10T05:55:58;10.90;90.40
16700;DHT22;8466;52.286;21.124;2023-05-10T05:58:27;11.00;90.60
16700;DHT22;8466;52.286;21.124;2023-05-10T06:00:56;11.10;91.00
16700;DHT22;8466;52.286;21.124;2023-05-10T06:03:26;11.20;90.50
16700;DHT22;8466;52.286;21.124;2023-05-10T06:05:55;11.30;91.10
16700;DHT22;8466;52.286;21.124;2023-05-10T06:08:24;11.40;90.40
16700;DHT22;8466;52.286;21.124;2023-05-10T06:10:52;11.50;89.80
16700;DHT22;8466;52.286;21.124;2023-05-10T06:13:21;11.60;90.20
16700;DHT22;8466;52.286;21.124;2023-05-10T06:15:50;11.70;88.90
16700;DHT22;8466;52.286;21.124;2023-05-10T06:18:19;11.80;87.80
16700;DHT22;8466;52.286;21.124;2023-05-10T06:20:49;11.90;88.30
16700;DHT22;8466;52.286;21.124;2023-05-10T06:23:18;12.00;87.40
16700;DHT22;8466;52.286;21.124;2023-05-10T06:25:47;12.10;86.20
16700;DHT22;8466;52.286;21.124;2023-05-10T06:28:16;12.10;87.20
16700;DHT22;8466;52.286;21.124;2023-05-10T06:30:44;12.20;87.20
16700;DHT22;8466;52.286;21.124;2023-05-10T06:33:13;12.40;87.40
16700;DHT22;8466;52.286;21.124;2023-05-10T06:35:43;12.40;84.80
16700;DHT22;8466;52.286;21.124;2023-05-10T06:38:13;12.50;86.60
16700;DHT22;8466;52.286;21.124;2023-05-10T06:40:42;12.50;86.10
16700;DHT22;8466;52.286;21.124;2023-05-10T06:43:11;12.50;87.20
16700;DHT22;8466;52.286;21.124;2023-05-10T06:45:39;12.60;85.20
16700;DHT22;8466;52.286;21.124;2023-05-10T06:48:08;12.70;86.80
16700;DHT22;8466;52.286;21.124;2023-05-10T06:50:37;12.90;83.30
16700;DHT22;8466;52.286;21.124;2023-05-10T06:53:05;13.00;83.80
16700;DHT22;8466;52.286;21.124;2023-05-10T06:55:35;13.00;83.20
16700;DHT22;8466;52.286;21.124;2023-05-10T06:58:04;13.10;83.10
16700;DHT22;8466;52.286;21.124;2023-05-10T07:00:33;13.20;82.70
16700;DHT22;8466;52.286;21.124;2023-05-10T07:03:01;13.30;80.60
16700;DHT22;8466;52.286;21.124;2023-05-10T07:05:30;13.50;77.40
16700;DHT22;8466;52.286;21.124;2023-05-10T07:07:59;13.60;78.30
16700;DHT22;8466;52.286;21.124;2023-05-10T07:10:28;13.80;77.00
16700;DHT22;8466;52.286;21.124;2023-05-10T07:12:58;13.80;76.70
16700;DHT22;8466;52.286;21.124;2023-05-10T07:15:27;13.80;77.40
16700;DHT22;8466;52.286;21.124;2023-05-10T07:17:55;13.90;77.90
16700;DHT22;8466;52.286;21.124;2023-05-10T07:20:24;14.00;78.00
16700;DHT22;8466;52.286;21.124;2023-05-10T07:22:53;14.10;74.20
16700;DHT22;8466;52.286;21.124;2023-05-10T07:25:22;14.20;74.10
16700;DHT22;8466;52.286;21.124;2023-05-10T07:27:51;14.30;75.30
16700;DHT22;8466;52.286;21.124;2023-05-10T07:30:21;14.30;73.20
16700;DHT22;8466;52.286;21.124;2023-05-10T07:32:50;14.30;73.60
16700;DHT22;8466;52.286;21.124;2023-05-10T07:35:20;14.40;69.90
16700;DHT22;8466;52.286;21.124;2023-05-10T07:37:50;14.50;70.60
16700;DHT22;8466;52.286;21.124;2023-05-10T07:40:19;14.50;66.90
16700;DHT22;8466;52.286;21.124;2023-05-10T07:42:47;14.50;66.40
16700;DHT22;8466;52.286;21.124;2023-05-10T07:45:16;14.70;66.40
16700;DHT22;8466;52.286;21.124;2023-05-10T07:47:46;14.70;65.70
16700;DHT22;8466;52.286;21.124;2023-05-10T07:50:15;14.80;63.60
16700;DHT22;8466;52.286;21.124;2023-05-10T07:52:43;14.80;65.70
16700;DHT22;8466;52.286;21.124;2023-05-10T07:55:12;14.70;65.70
16700;DHT22;8466;52.286;21.124;2023-05-10T07:57:42;14.80;61.80
16700;DHT22;8466;52.286;21.124;2023-05-10T08:00:13;14.90;59.40
16700;DHT22;8466;52.286;21.124;2023-05-10T08:02:46;14.90;60.90
16700;DHT22;8466;52.286;21.124;2023-05-10T08:05:15;14.80;63.00
16700;DHT22;8466;52.286;21.124;2023-05-10T08:07:45;14.80;63.60
16700;DHT22;8466;52.286;21.124;2023-05-10T08:10:13;14.90;65.10
16700;DHT22;8466;52.286;21.124;2023-05-10T08:12:42;14.90;66.60
16700;DHT22;8466;52.286;21.124;2023-05-10T08:15:11;15.00;65.30
16700;DHT22;8466;52.286;21.124;2023-05-10T08:17:39;15.20;62.10
16700;DHT22;8466;52.286;21.124;2023-05-10T08:20:10;15.20;59.50
16700;DHT22;8466;52.286;21.124;2023-05-10T08:22:39;15.30;61.20
16700;DHT22;8466;52.286;21.124;2023-05-10T08:25:08;15.30;61.20
16700;DHT22;8466;52.286;21.124;2023-05-10T08:27:37;15.40;61.70
16700;DHT22;8466;52.286;21.124;2023-05-10T08:30:07;15.40;63.80
16700;DHT22;8466;52.286;21.124;2023-05-10T08:32:35;15.40;61.10
16700;DHT22;8466;52.286;21.124;2023-05-10T08:35:05;15.50;60.00
16700;DHT22;8466;52.286;21.124;2023-05-10T08:37:35;15.60;61.40
16700;DHT22;8466;52.286;21.124;2023-05-10T08:40:05;15.60;59.70
16700;DHT22;8466;52.286;21.124;2023-05-10T08:42:35;15.60;59.40
16700;DHT22;8466;52.286;21.124;2023-05-10T08:45:06;15.50;59.50
16700;DHT22;8466;52.286;21.124;2023-05-10T08:47:36;15.60;61.40
16700;DHT22;8466;52.286;21.124;2023-05-10T08:50:07;15.60;59.60
16700;DHT22;8466;52.286;21.124;2023-05-10T08:52:38;15.60;59.70
16700;DHT22;8466;52.286;21.124;2023-05-10T08:55:08;15.60;62.10
16700;DHT22;8466;52.286;21.124;2023-05-10T08:57:37;15.80;62.60
16700;DHT22;8466;52.286;21.124;2023-05-10T09:00:07;15.60;63.10
16700;DHT22;8466;52.286;21.124;2023-05-10T09:02:37;15.70;61.40
16700;DHT22;8466;52.286;21.124;2023-05-10T09:05:06;15.80;62.20
16700;DHT22;8466;52.286;21.124;2023-05-10T09:07:38;15.80;60.40
16700;DHT22;8466;52.286;21.124;2023-05-10T09:10:08;15.80;60.10
16700;DHT22;8466;52.286;21.124;2023-05-10T09:12:37;15.80;59.50
16700;DHT22;8466;52.286;21.124;2023-05-10T09:15:07;15.70;60.60
16700;DHT22;8466;52.286;21.124;2023-05-10T09:17:38;15.80;60.20
16700;DHT22;8466;52.286;21.124;2023-05-10T09:20:09;15.80;59.50
16700;DHT22;8466;52.286;21.124;2023-05-10T09:22:39;15.80;60.50
16700;DHT22;8466;52.286;21.124;2023-05-10T09:25:09;15.80;60.20
16700;DHT22;8466;52.286;21.124;2023-05-10T09:27:39;15.90;60.00
16700;DHT22;8466;52.286;21.124;2023-05-10T09:30:08;15.90;59.60
16700;DHT22;8466;52.286;21.124;2023-05-10T09:32:38;15.90;61.50
16700;DHT22;8466;52.286;21.124;2023-05-10T09:35:08;16.00;60.00
16700;DHT22;8466;52.286;21.124;2023-05-10T09:37:40;16.10;59.00
16700;DHT22;8466;52.286;21.124;2023-05-10T09:40:12;16.10;59.00
16700;DHT22;8466;52.286;21.124;2023-05-10T09:42:50;16.10;59.90
16700;DHT22;8466;52.286;21.124;2023-05-10T09:45:19;16.00;59.30
16700;DHT22;8466;52.286;21.124;2023-05-10T09:47:48;16.10;58.80
16700;DHT22;8466;52.286;21.124;2023-05-10T09:50:16;16.10;59.40
16700;DHT22;8466;52.286;21.124;2023-05-10T09:52:51;16.10;59.90
16700;DHT22;8466;52.286;21.124;2023-05-10T09:55:21;16.20;59.60
16700;DHT22;8466;52.286;21.124;2023-05-10T09:57:59;16.20;60.10
16700;DHT22;8466;52.286;21.124;2023-05-10T10:00:33;16.30;59.80
16700;DHT22;8466;52.286;21.124;2023-05-10T10:03:03;16.40;58.00
16700;DHT22;8466;52.286;21.124;2023-05-10T10:05:34;16.40;58.30
16700;DHT22;8466;52.286;21.124;2023-05-10T10:08:06;16.40;57.60
16700;DHT22;8466;52.286;21.124;2023-05-10T10:10:35;16.30;58.60
16700;DHT22;8466;52.286;21.124;2023-05-10T10:13:04;16.40;58.50
16700;DHT22;8466;52.286;21.124;2023-05-10T10:15:33;16.40;60.10
16700;DHT22;8466;52.286;21.124;2023-05-10T10:18:02;16.50;58.60
16700;DHT22;8466;52.286;21.124;2023-05-10T10:20:32;16.40;58.80
16700;DHT22;8466;52.286;21.124;2023-05-10T10:23:00;16.40;59.70
16700;DHT22;8466;52.286;21.124;2023-05-10T10:25:31;16.40;59.80
16700;DHT22;8466;52.286;21.124;2023-05-10T10:28:09;16.50;59.40
16700;DHT22;8466;52.286;21.124;2023-05-10T10:30:42;16.50;61.60
16700;DHT22;8466;52.286;21.124;2023-05-10T10:33:33;16.60;59.00
16700;DHT22;8466;52.286;21.124;2023-05-10T10:36:05;16.60;60.10
16700;DHT22;8466;52.286;21.124;2023-05-10T10:38:38;16.60;59.30
16700;DHT22;8466;52.286;21.124;2023-05-10T10:41:33;16.60;59.00
16700;DHT22;8466;52.286;21.124;2023-05-10T10:44:25;16.70;57.70
16700;DHT22;8466;52.286;21.124;2023-05-10T10:47:01;16.70;59.00
16700;DHT22;8466;52.286;21.124;2023-05-10T10:49:41;16.70;58.20
16700;DHT22;8466;52.286;21.124;2023-05-10T10:52:24;16.60;59.00
16700;DHT22;8466;52.286;21.124;2023-05-10T10:55:01;16.80;59.10
16700;DHT22;8466;52.286;21.124;2023-05-10T10:57:43;16.80;58.90
16700;DHT22;8466;52.286;21.124;2023-05-10T11:00:25;17.00;57.50
16700;DHT22;8466;52.286;21.124;2023-05-10T11:02:57;17.00;57.80
16700;DHT22;8466;52.286;21.124;2023-05-10T11:05:44;17.10;57.00
16700;DHT22;8466;52.286;21.124;2023-05-10T11:08:19;17.00;56.40
16700;DHT22;8466;52.286;21.124;2023-05-10T11:11:02;17.00;58.10
16700;DHT22;8466;52.286;21.124;2023-05-10T11:13:38;16.90;58.90
16700;DHT22;8466;52.286;21.124;2023-05-10T11:16:12;17.10;58.30
16700;DHT22;8466;52.286;21.124;2023-05-10T11:18:59;17.20;56.80
16700;DHT22;8466;52.286;21.124;2023-05-10T11:21:29;17.20;57.70
16700;DHT22;8466;52.286;21.124;2023-05-10T11:24:00;17.20;56.60
16700;DHT22;8466;52.286;21.124;2023-05-10T11:26:35;17.20;58.00
16700;DHT22;8466;52.286;21.124;2023-05-10T11:29:06;17.20;57.10
16700;DHT22;8466;52.286;21.124;2023-05-10T11:31:35;17.20;57.50
16700;DHT22;8466;52.286;21.124;2023-05-10T11:34:11;17.20;58.20
16700;DHT22;8466;52.286;21.124;2023-05-10T11:36:41;17.30;56.70
16700;DHT22;8466;52.286;21.124;2023-05-10T11:39:11;17.30;56.80
16700;DHT22;8466;52.286;21.124;2023-05-10T11:41:40;17.20;57.30
16700;DHT22;8466;52.286;21.124;2023-05-10T11:44:18;17.30;57.60
16700;DHT22;8466;52.286;21.124;2023-05-10T11:46:50;17.30;57.20
16700;DHT22;8466;52.286;21.124;2023-05-10T11:49:19;17.30;58.30
16700;DHT22;8466;52.286;21.124;2023-05-10T11:51:49;17.30;58.20
16700;DHT22;8466;52.286;21.124;2023-05-10T11:54:17;17.30;58.60
16700;DHT22;8466;52.286;21.124;2023-05-10T11:56:46;17.40;56.20
16700;DHT22;8466;52.286;21.124;2023-05-10T11:59:16;17.40;56.30
16700;DHT22;8466;52.286;21.124;2023-05-10T12:01:45;17.40;57.00
16700;DHT22;8466;52.286;21.124;2023-05-10T12:04:14;17.40;57.10
16700;DHT22;8466;52.286;21.124;2023-05-10T12:06:43;17.50;55.80
16700;DHT22;8466;52.286;21.124;2023-05-10T12:09:13;17.50;55.10
16700;DHT22;8466;52.286;21.124;2023-05-10T12:11:49;17.50;56.30
16700;DHT22;8466;52.286;21.124;2023-05-10T12:14:19;17.50;55.90
16700;DHT22;8466;52.286;21.124;2023-05-10T12:16:48;17.50;56.20
16700;DHT22;8466;52.286;21.124;2023-05-10T12:19:19;17.50;56.50
16700;DHT22;8466;52.286;21.124;2023-05-10T12:21:48;17.50;56.40
16700;DHT22;8466;52.286;21.124;2023-05-10T12:24:17;17.50;57.70
16700;DHT22;8466;52.286;21.124;2023-05-10T12:26:46;17.50;56.70
16700;DHT22;8466;52.286;21.124;2023-05-10T12:29:34;17.40;58.90
16700;DHT22;8466;52.286;21.124;2023-05-10T12:32:02;17.40;59.70
16700;DHT22;8466;52.286;21.124;2023-05-10T12:34:33;17.60;57.80
16700;DHT22;8466;52.286;21.124;2023-05-10T12:37:02;17.60;57.10
16700;DHT22;8466;52.286;21.124;2023-05-10T12:39:41;17.70;56.90
16700;DHT22;8466;52.286;21.124;2023-05-10T12:42:10;17.70;57.50
16700;DHT22;8466;52.286;21.124;2023-05-10T12:44:40;17.60;57.00
16700;DHT22;8466;52.286;21.124;2023-05-10T12:47:09;17.70;58.30
16700;DHT22;8466;52.286;21.124;2023-05-10T12:49:37;17.70;57.10
16700;DHT22;8466;52.286;21.124;2023-05-10T12:52:06;17.70;56.10
16700;DHT22;8466;52.286;21.124;2023-05-10T12:54:35;17.70;56.50
16700;DHT22;8466;52.286;21.124;2023-05-10T12:57:03;17.60;56.90
16700;DHT22;8466;52.286;21.124;2023-05-10T12:59:32;17.60;58.20
16700;DHT22;8466;52.286;21.124;2023-05-10T13:02:06;17.60;58.70
16700;DHT22;8466;52.286;21.124;2023-05-10T13:04:34;17.60;58.40
16700;DHT22;8466;52.286;21.124;2023-05-10T13:07:06;17.70;57.20
16700;DHT22;8466;52.286;21.124;2023-05-10T13:09:35;17.70;57.90
16700;DHT22;8466;52.286;21.124;2023-05-10T13:12:04;17.80;58.20
16700;DHT22;8466;52.286;21.124;2023-05-10T13:14:35;17.80;58.40
16700;DHT22;8466;52.286;21.124;2023-05-10T13:17:05;17.80;58.90
16700;DHT22;8466;52.286;21.124;2023-05-10T13:19:34;17.80;60.10
16700;DHT22;8466;52.286;21.124;2023-05-10T13:22:03;17.90;58.30
16700;DHT22;8466;52.286;21.124;2023-05-10T13:24:32;17.80;58.20
16700;DHT22;8466;52.286;21.124;2023-05-10T13:27:00;17.70;58.60
16700;DHT22;8466;52.286;21.124;2023-05-10T13:29:29;17.60;59.40
16700;DHT22;8466;52.286;21.124;2023-05-10T13:31:58;17.70;58.20
16700;DHT22;8466;52.286;21.124;2023-05-10T13:34:29;17.70;57.50
16700;DHT22;8466;52.286;21.124;2023-05-10T13:36:58;17.70;58.00
16700;DHT22;8466;52.286;21.124;2023-05-10T13:39:26;17.70;58.20
16700;DHT22;8466;52.286;21.124;2023-05-10T13:41:57;17.80;57.40
16700;DHT22;8466;52.286;21.124;2023-05-10T13:44:26;17.80;58.20
16700;DHT22;8466;52.286;21.124;2023-05-10T13:46:55;17.80;58.10
16700;DHT22;8466;52.286;21.124;2023-05-10T13:49:24;17.80;58.00
16700;DHT22;8466;52.286;21.124;2023-05-10T13:51:54;17.80;58.10
16700;DHT22;8466;52.286;21.124;2023-05-10T13:54:23;17.80;57.80
16700;DHT22;8466;52.286;21.124;2023-05-10T13:56:52;17.90;57.50
16700;DHT22;8466;52.286;21.124;2023-05-10T13:59:20;17.90;56.40
16700;DHT22;8466;52.286;21.124;2023-05-10T14:01:49;18.00;57.00
16700;DHT22;8466;52.286;21.124;2023-05-10T14:04:18;18.00;56.70
16700;DHT22;8466;52.286;21.124;2023-05-10T14:06:46;18.00;56.20
16700;DHT22;8466;52.286;21.124;2023-05-10T14:09:16;18.10;56.20
16700;DHT22;8466;52.286;21.124;2023-05-10T14:11:45;18.20;54.60
16700;DHT22;8466;52.286;21.124;2023-05-10T14:14:20;18.10;53.90
16700;DHT22;8466;52.286;21.124;2023-05-10T14:16:50;18.10;55.20
16700;DHT22;8466;52.286;21.124;2023-05-10T14:19:20;18.00;54.60
16700;DHT22;8466;52.286;21.124;2023-05-10T14:21:52;18.00;54.50
16700;DHT22;8466;52.286;21.124;2023-05-10T14:24:22;18.00;54.00
16700;DHT22;8466;52.286;21.124;2023-05-10T14:26:50;17.90;54.10
16700;DHT22;8466;52.286;21.124;2023-05-10T14:29:20;17.90;54.80
16700;DHT22;8466;52.286;21.124;2023-05-10T14:31:50;17.90;54.40
16700;DHT22;8466;52.286;21.124;2023-05-10T14:34:18;17.90;54.60
16700;DHT22;8466;52.286;21.124;2023-05-10T14:36:47;17.90;55.20
16700;DHT22;8466;52.286;21.124;2023-05-10T14:39:15;18.00;55.20
16700;DHT22;8466;52.286;21.124;2023-05-10T14:41:45;18.00;55.80
16700;DHT22;8466;52.286;21.124;2023-05-10T14:44:14;18.10;55.70
16700;DHT22;8466;52.286;21.124;2023-05-10T14:46:43;18.20;55.80
16700;DHT22;8466;52.286;21.124;2023-05-10T14:49:12;18.40;54.90
16700;DHT22;8466;52.286;21.124;2023-05-10T14:51:40;18.50;54.80
16700;DHT22;8466;52.286;21.124;2023-05-10T14:54:09;18.60;54.50
16700;DHT22;8466;52.286;21.124;2023-05-10T14:56:38;18.70;53.70
16700;DHT22;8466;52.286;21.124;2023-05-10T14:59:09;18.70;54.40
16700;DHT22;8466;52.286;21.124;2023-05-10T15:01:39;18.90;54.80
16700;DHT22;8466;52.286;21.124;2023-05-10T15:04:09;19.20;53.60
16700;DHT22;8466;52.286;21.124;2023-05-10T15:06:40;19.50;53.10
16700;DHT22;8466;52.286;21.124;2023-05-10T15:09:08;19.80;52.80
16700;DHT22;8466;52.286;21.124;2023-05-10T15:11:37;20.00;51.30
16700;DHT22;8466;52.286;21.124;2023-05-10T15:14:06;20.20;50.60
16700;DHT22;8466;52.286;21.124;2023-05-10T15:16:36;20.20;50.60
16700;DHT22;8466;52.286;21.124;2023-05-10T15:19:05;20.40;50.90
16700;DHT22;8466;52.286;21.124;2023-05-10T15:21:33;20.40;50.50
16700;DHT22;8466;52.286;21.124;2023-05-10T15:24:06;20.50;50.50
16700;DHT22;8466;52.286;21.124;2023-05-10T15:26:34;20.50;50.90
16700;DHT22;8466;52.286;21.124;2023-05-10T15:29:03;20.20;51.20
16700;DHT22;8466;52.286;21.124;2023-05-10T15:31:31;19.90;51.50
16700;DHT22;8466;52.286;21.124;2023-05-10T15:34:03;19.40;51.90
16700;DHT22;8466;52.286;21.124;2023-05-10T15:36:32;19.00;52.00
16700;DHT22;8466;52.286;21.124;2023-05-10T15:39:00;18.60;52.30
16700;DHT22;8466;52.286;21.124;2023-05-10T15:41:29;18.30;52.30
16700;DHT22;8466;52.286;21.124;2023-05-10T15:43:58;18.00;52.90
16700;DHT22;8466;52.286;21.124;2023-05-10T15:46:28;17.80;53.10
16700;DHT22;8466;52.286;21.124;2023-05-10T15:48:57;17.70;52.80
16700;DHT22;8466;52.286;21.124;2023-05-10T15:51:27;17.50;53.00
16700;DHT22;8466;52.286;21.124;2023-05-10T15:53:56;17.40;53.60
16700;DHT22;8466;52.286;21.124;2023-05-10T15:56:34;17.30;53.80
16700;DHT22;8466;52.286;21.124;2023-05-10T15:59:06;17.20;54.00